Time;durP1;ratioP1;P1;durP2;ratioP2;P2;SDS_P1;SDS_P2;PMS_P1;PMS_P2;Temp;Humidity;BMP_temperature;BMP_pressure;BME280_temperature;BME280_humidity;BME280_pressure;Samples;Min_cycle;Max_cycle;Signal;HPM_P1;HPM_P2
2022/11/22 00:00:51;;;;;;;23.38;15.95;;;25.10;90.50;;;;;;1868992;76;21138;-85
2022/11/22 00:03:25;;;;;;;22.27;16.12;;;25.10;90.60;;;;;;1817014;77;21096;-85
2022/11/22 00:05:58;;;;;;;;;;;25.10;90.60;;;;;;1843971;77;21508;-84
2022/11/22 00:08:29;;;;;;;26.30;16.27;;;25.00;90.60;;;;;;1862169;77;20204;-84
2022/11/22 00:11:03;;;;;;;24.95;16.27;;;25.00;90.70;;;;;;1845635;76;21580;-83
2022/11/22 00:13:34;;;;;;;26.37;16.30;;;25.10;90.90;;;;;;1862229;77;21118;-84
2022/11/22 00:16:05;;;;;;;24.55;16.00;;;25.10;90.90;;;;;;1861800;77;21064;-84
2022/11/22 00:18:36;;;;;;;22.87;17.17;;;25.10;90.90;;;;;;1860821;77;21180;-84
2022/11/22 00:21:08;;;;;;;24.80;16.85;;;25.10;90.90;;;;;;1863214;76;21167;-85
2022/11/22 00:23:39;;;;;;;23.98;15.95;;;25.10;90.90;;;;;;1860657;77;21131;-83
2022/11/22 00:26:10;;;;;;;23.40;16.25;;;25.10;90.90;;;;;;1894121;75;21657;-84
2022/11/22 00:28:41;;;;;;;21.20;15.45;;;25.10;90.90;;;;;;1872400;75;21657;-84
2022/11/22 00:31:12;;;;;;;23.35;16.30;;;25.10;90.90;;;;;;1838107;76;22150;-84
2022/11/22 00:33:43;;;;;;;23.62;16.90;;;25.20;90.90;;;;;;1857829;74;21151;-84
2022/11/22 00:36:16;;;;;;;22.67;15.93;;;25.20;90.80;;;;;;1869631;76;21114;-84
2022/11/22 00:38:47;;;;;;;22.45;15.98;;;25.30;90.90;;;;;;1836021;77;21179;-83
2022/11/22 00:41:18;;;;;;;22.37;15.48;;;25.30;90.80;;;;;;1866457;75;21067;-84
2022/11/22 00:43:49;;;;;;;26.95;16.80;;;25.30;90.90;;;;;;1875590;76;21098;-83
2022/11/22 00:46:20;;;;;;;24.30;17.25;;;25.30;90.80;;;;;;1874139;76;21190;-85
2022/11/22 00:48:51;;;;;;;22.40;16.77;;;25.40;90.70;;;;;;1849744;76;21217;-84
2022/11/22 00:51:21;;;;;;;23.38;16.25;;;25.40;90.80;;;;;;1856272;75;21539;-84
2022/11/22 00:53:52;;;;;;;23.98;17.00;;;25.50;90.60;;;;;;1879994;76;21642;-85
2022/11/22 00:56:23;;;;;;;22.37;16.30;;;25.60;91.00;;;;;;1873530;76;21650;-85
2022/11/22 00:58:54;;;;;;;26.23;16.35;;;25.70;90.60;;;;;;1860046;75;21178;-84
2022/11/22 01:01:25;;;;;;;26.85;16.65;;;25.70;90.60;;;;;;1827332;78;21618;-85
2022/11/22 01:03:56;;;;;;;24.15;16.95;;;25.80;90.40;;;;;;1846706;76;21139;-85
2022/11/22 01:06:28;;;;;;;22.30;16.02;;;25.90;90.30;;;;;;1870658;76;21122;-84
2022/11/22 01:08:59;;;;;;;24.15;16.82;;;26.00;90.20;;;;;;1871376;76;21436;-85
2022/11/22 01:11:30;;;;;;;23.85;17.15;;;26.10;90.00;;;;;;1861084;76;21150;-84
2022/11/22 01:14:01;;;;;;;23.92;15.63;;;26.20;89.80;;;;;;1869193;76;21059;-85
2022/11/22 01:16:32;;;;;;;23.38;15.55;;;26.20;89.50;;;;;;1877064;76;21118;-84
2022/11/22 01:19:03;;;;;;;23.15;15.03;;;26.40;89.10;;;;;;1865578;76;21178;-85
2022/11/22 01:21:34;;;;;;;19.55;14.98;;;26.50;88.80;;;;;;1806301;77;21138;-85
2022/11/22 01:24:05;;;;;;;21.40;15.15;;;26.60;88.60;;;;;;1812167;78;21268;-86
2022/11/22 01:26:37;;;;;;;20.48;14.93;;;26.70;88.40;;;;;;1875792;76;21169;-85
2022/11/22 01:29:08;;;;;;;19.12;14.53;;;26.80;88.10;;;;;;1874585;75;21180;-85
2022/11/22 01:31:39;;;;;;;20.23;14.47;;;26.90;88.10;;;;;;1837268;77;21252;-86
2022/11/22 01:34:11;;;;;;;19.48;13.18;;;26.90;87.90;;;;;;1870599;76;21182;-85
2022/11/22 01:36:42;;;;;;;18.73;13.80;;;27.00;87.50;;;;;;1864366;75;21262;-85
2022/11/22 01:39:16;;;;;;;17.65;12.90;;;27.10;87.10;;;;;;1849344;76;21177;-85
2022/11/22 01:41:47;;;;;;;18.65;12.85;;;27.10;86.90;;;;;;1808192;77;21206;-86
2022/11/22 01:44:26;;;;;;;15.95;12.35;;;27.20;86.70;;;;;;1864833;76;21178;-83
2022/11/22 01:47:09;;;;;;;18.37;11.88;;;27.30;86.50;;;;;;1789748;78;21808;-82
2022/11/22 01:49:48;;;;;;;20.08;13.60;;;27.40;86.00;;;;;;1843663;76;21161;-85
2022/11/22 01:52:38;;;;;;;16.73;12.70;;;27.40;86.00;;;;;;1874328;75;21695;-84
2022/11/22 01:55:11;;;;;;;17.60;11.70;;;27.50;85.70;;;;;;1863849;76;21239;-73
2022/11/22 01:57:44;;;;;;;17.70;12.45;;;27.50;85.50;;;;;;1813711;78;21162;-74
2022/11/22 02:00:17;;;;;;;14.47;10.68;;;27.60;85.30;;;;;;1870636;75;21189;-75
2022/11/22 02:03:08;;;;;;;16.07;11.53;;;27.70;84.80;;;;;;1854103;75;21073;-75
2022/11/22 02:05:39;;;;;;;18.30;12.45;;;27.70;84.00;;;;;;1835651;76;21632;-77
2022/11/22 02:08:39;;;;;;;20.97;12.80;;;27.70;83.70;;;;;;1862484;76;21620;-76
2022/11/22 02:11:12;;;;;;;17.48;12.23;;;27.80;83.60;;;;;;1834297;77;21050;-76
2022/11/22 02:13:47;;;;;;;17.67;12.95;;;27.80;83.70;;;;;;1840597;76;21113;-76
2022/11/22 02:16:19;;;;;;;20.40;12.03;;;27.90;83.40;;;;;;1863391;76;21736;-75
2022/11/22 02:18:50;;;;;;;18.57;11.53;;;27.90;82.80;;;;;;1837104;77;21227;-74
2022/11/22 02:21:21;;;;;;;17.23;11.88;;;28.00;82.40;;;;;;1818953;77;21171;-75
2022/11/22 02:23:54;;;;;;;15.03;11.75;;;28.00;82.50;;;;;;1824992;77;21229;-74
2022/11/22 02:26:27;;;;;;;18.40;12.35;;;28.00;82.50;;;;;;1810147;77;21254;-75
2022/11/22 02:29:04;;;;;;;15.78;12.15;;;28.10;81.60;;;;;;1824988;77;21252;-73
2022/11/22 02:31:46;;;;;;;14.65;11.73;;;28.10;81.60;;;;;;1832231;76;21126;-73
2022/11/22 02:34:20;;;;;;;17.75;14.03;;;28.20;81.80;;;;;;1844468;76;21193;-74
2022/11/22 02:36:55;;;;;;;17.67;12.98;;;28.20;81.10;;;;;;1834681;76;21516;-74
2022/11/22 02:39:28;;;;;;;15.48;12.85;;;28.20;81.10;;;;;;1839680;77;21217;-75
2022/11/22 02:42:00;;;;;;;13.88;11.68;;;28.20;81.10;;;;;;1801165;78;21667;-75
2022/11/22 02:44:31;;;;;;;16.73;13.25;;;28.30;80.90;;;;;;1839215;77;21153;-74
2022/11/22 02:47:02;;;;;;;15.30;12.40;;;28.30;80.60;;;;;;1839355;77;21141;-74
2022/11/22 02:49:34;;;;;;;14.83;11.65;;;28.40;80.50;;;;;;1823005;77;21807;-75
2022/11/22 02:52:05;;;;;;;20.75;12.33;;;28.50;80.00;;;;;;1841820;77;21181;-74
2022/11/22 02:54:37;;;;;;;16.25;11.95;;;28.50;79.70;;;;;;1789587;79;21534;-74
2022/11/22 02:57:08;;;;;;;16.40;11.55;;;28.50;80.00;;;;;;1830874;76;21162;-75
2022/11/22 02:59:38;;;;;;;16.37;10.95;;;28.60;79.20;;;;;;1831567;76;21194;-74
2022/11/22 03:02:10;;;;;;;16.02;12.13;;;28.60;79.50;;;;;;1829243;76;21662;-74
2022/11/22 03:04:40;;;;;;;16.10;11.75;;;28.60;79.90;;;;;;1843842;77;21194;-74
2022/11/22 03:07:11;;;;;;;16.77;12.40;;;28.70;80.10;;;;;;1824884;77;21787;-74
2022/11/22 03:09:44;;;;;;;15.93;12.90;;;28.70;79.80;;;;;;1827941;77;21730;-75
2022/11/22 03:12:21;;;;;;;17.17;12.60;;;28.80;79.40;;;;;;1809362;78;21133;-74
2022/11/22 03:14:52;;;;;;;16.60;12.03;;;28.90;79.40;;;;;;1788309;79;21224;-74
2022/11/22 03:17:29;;;;;;;17.25;12.65;;;29.00;79.40;;;;;;1759537;81;21167;-74
2022/11/22 03:20:00;;;;;;;20.52;13.32;;;29.10;79.20;;;;;;1750837;81;21690;-76
2022/11/22 03:22:32;;;;;;;21.00;12.55;;;29.20;78.30;;;;;;1816535;78;21179;-75
2022/11/22 03:25:03;;;;;;;16.52;13.08;;;29.30;79.10;;;;;;1826477;78;21125;-74
2022/11/22 03:27:39;;;;;;;15.10;12.00;;;29.30;78.80;;;;;;1835477;77;21138;-74
2022/11/22 03:30:11;;;;;;;18.02;12.07;;;29.30;78.50;;;;;;1781856;80;21151;-73
2022/11/22 03:32:43;;;;;;;16.20;12.65;;;29.40;79.30;;;;;;1782952;79;21193;-74
2022/11/22 03:35:14;;;;;;;16.25;13.00;;;29.60;78.50;;;;;;1775985;79;21637;-75
2022/11/22 03:37:45;;;;;;;15.90;12.90;;;29.60;78.50;;;;;;1837004;77;21078;-75
2022/11/22 03:40:16;;;;;;;17.25;10.85;;;29.70;78.00;;;;;;1829288;77;21186;-75
2022/11/22 03:42:48;;;;;;;14.28;10.82;;;29.90;76.80;;;;;;1829194;77;21224;-74
2022/11/22 03:45:19;;;;;;;14.78;11.38;;;30.00;76.20;;;;;;1782145;80;21087;-74
2022/11/22 03:47:52;;;;;;;12.73;10.72;;;30.10;75.10;;;;;;1842091;77;21057;-74
2022/11/22 03:50:23;;;;;;;12.30;10.32;;;30.20;75.00;;;;;;1835336;78;21174;-75
2022/11/22 03:52:54;;;;;;;13.90;10.82;;;30.30;74.90;;;;;;1819956;77;21172;-74
2022/11/22 03:55:25;;;;;;;15.80;10.88;;;30.40;75.00;;;;;;1811293;78;21250;-73
2022/11/22 03:57:56;;;;;;;11.73;10.28;;;30.50;74.10;;;;;;1807595;77;21216;-74
2022/11/22 04:00:28;;;;;;;14.00;11.15;;;30.50;73.70;;;;;;1799146;77;21234;-74
2022/11/22 04:02:59;;;;;;;14.33;10.60;;;30.60;73.40;;;;;;1812670;77;21200;-74
2022/11/22 04:05:30;;;;;;;17.90;11.53;;;30.60;74.00;;;;;;1825791;77;21117;-76
2022/11/22 04:08:01;;;;;;;16.57;11.12;;;30.80;73.90;;;;;;1820444;77;21199;-74
2022/11/22 04:10:32;;;;;;;14.20;9.63;;;30.90;73.10;;;;;;1817331;77;21125;-76
2022/11/22 04:13:03;;;;;;;11.18;9.80;;;31.00;73.00;;;;;;1769582;80;21195;-75
2022/11/22 04:15:35;;;;;;;14.47;11.35;;;31.10;72.80;;;;;;1810726;76;22161;-75
2022/11/22 04:18:07;;;;;;;13.48;10.70;;;31.20;71.80;;;;;;1806930;78;21093;-75
2022/11/22 04:23:29;;;;;;;15.98;10.40;;;31.40;70.90;;;;;;1807828;78;21209;-76
2022/11/22 04:26:01;;;;;;;14.90;10.25;;;31.40;69.90;;;;;;1815278;78;21675;-74
2022/11/22 04:28:33;;;;;;;13.03;10.98;;;31.40;70.10;;;;;;1795192;78;21141;-76
2022/11/22 04:33:55;;;;;;;12.05;10.38;;;31.40;70.30;;;;;;1800875;76;21148;-76
2022/11/22 04:36:26;;;;;;;13.32;9.70;;;31.40;70.00;;;;;;1813180;77;21141;-76
2022/11/22 04:38:57;;;;;;;13.68;9.58;;;31.50;69.80;;;;;;1801603;77;21125;-75
2022/11/22 04:41:34;;;;;;;16.57;10.75;;;31.60;69.70;;;;;;1802230;77;21159;-76
2022/11/22 04:46:55;;;;;;;13.98;10.28;;;31.80;69.50;;;;;;1833399;77;21094;-75
2022/11/22 04:49:26;;;;;;;14.98;9.85;;;31.90;69.30;;;;;;1837169;78;21172;-74
2022/11/22 04:54:46;;;;;;;16.10;11.20;;;31.90;68.50;;;;;;1849097;75;21213;-75
2022/11/22 04:57:17;;;;;;;13.08;9.10;;;31.80;69.00;;;;;;1853702;76;21125;-76
2022/11/22 04:59:49;;;;;;;17.52;11.22;;;31.80;68.40;;;;;;1847091;77;21749;-76
2022/11/22 05:02:21;;;;;;;12.55;9.48;;;31.80;69.70;;;;;;1847048;77;21907;-74
2022/11/22 05:04:52;;;;;;;12.20;9.23;;;31.80;69.20;;;;;;1836216;77;21181;-75
2022/11/22 05:07:23;;;;;;;15.78;9.93;;;31.80;68.70;;;;;;1843773;76;21149;-75
2022/11/22 05:09:54;;;;;;;13.43;9.25;;;31.90;67.90;;;;;;1757279;80;21213;-74
2022/11/22 05:12:26;;;;;;;11.60;8.95;;;31.90;68.30;;;;;;1777011;79;21193;-75
2022/11/22 05:14:57;;;;;;;14.28;9.05;;;32.00;67.90;;;;;;1788609;80;21705;-74
2022/11/22 05:17:28;;;;;;;12.70;9.18;;;32.00;69.40;;;;;;1778071;80;21155;-75
2022/11/22 05:20:00;;;;;;;13.10;9.50;;;32.00;67.40;;;;;;1851320;76;21600;-74
2022/11/22 05:25:27;;;;;;;11.80;9.15;;;32.20;68.00;;;;;;1823758;78;21094;-72
2022/11/22 05:28:00;;;;;;;12.25;9.08;;;32.20;66.70;;;;;;1830501;77;21157;-73
2022/11/22 05:30:30;;;;;;;14.07;9.73;;;32.20;66.80;;;;;;1830347;78;21544;-72
2022/11/22 05:33:02;;;;;;;13.32;9.35;;;32.20;66.30;;;;;;1859628;76;21236;-73
2022/11/22 05:35:33;;;;;;;10.43;8.35;;;32.30;66.80;;;;;;1829042;76;21612;-74
2022/11/22 05:38:04;;;;;;;10.20;8.40;;;32.40;65.80;;;;;;1843987;77;21296;-72
2022/11/22 05:40:35;;;;;;;11.48;8.73;;;32.40;65.90;;;;;;1835722;77;21231;-73
2022/11/22 05:43:06;;;;;;;12.82;8.50;;;32.40;65.40;;;;;;1816748;78;21067;-71
2022/11/22 05:45:37;;;;;;;11.78;8.88;;;32.40;65.40;;;;;;1795461;77;21182;-73
2022/11/22 05:48:08;;;;;;;15.40;8.63;;;32.40;65.40;;;;;;1844764;77;21177;-71
2022/11/22 05:50:40;;;;;;;10.40;7.67;;;32.50;64.70;;;;;;1848375;76;21181;-72
2022/11/22 05:53:11;;;;;;;10.25;8.20;;;32.50;63.90;;;;;;1826025;78;21215;-76
2022/11/22 05:55:42;;;;;;;13.48;7.72;;;32.50;65.00;;;;;;1830608;78;21118;-74
2022/11/22 05:58:13;;;;;;;9.78;7.95;;;32.60;63.70;;;;;;1830399;78;21157;-75
2022/11/22 06:00:44;;;;;;;9.98;7.55;;;32.70;63.40;;;;;;1760954;79;21245;-73
2022/11/22 06:03:15;;;;;;;11.28;7.47;;;32.70;62.60;;;;;;1763485;80;21192;-73
2022/11/22 06:05:51;;;;;;;12.15;7.72;;;32.60;61.80;;;;;;1850716;77;21107;-73
2022/11/22 06:08:22;;;;;;;15.23;8.90;;;32.60;62.30;;;;;;1851115;77;21062;-73
2022/11/22 06:11:01;;;;;;;9.58;8.10;;;32.60;63.20;;;;;;1843009;77;21153;-74
2022/11/22 06:13:37;;;;;;;10.98;8.23;;;32.70;62.70;;;;;;1852970;76;21716;-73
2022/11/22 06:16:09;;;;;;;8.97;7.73;;;32.80;62.50;;;;;;1828102;77;21608;-73
2022/11/22 06:18:40;;;;;;;11.18;8.35;;;32.80;62.20;;;;;;1825573;77;21526;-74
2022/11/22 06:21:17;;;;;;;9.43;7.45;;;32.90;61.90;;;;;;1842951;76;21194;-73
2022/11/22 06:23:48;;;;;;;10.63;7.03;;;32.90;61.30;;;;;;1857228;76;21170;-73
2022/11/22 06:26:20;;;;;;;11.63;8.65;;;32.80;60.80;;;;;;1859036;76;21097;-73
2022/11/22 06:28:54;;;;;;;9.53;7.15;;;32.80;62.90;;;;;;1822135;77;21705;-73
2022/11/22 06:31:27;;;;;;;9.43;7.33;;;32.80;61.40;;;;;;1767428;79;21250;-73
2022/11/22 06:34:00;;;;;;;7.83;7.00;;;32.90;60.90;;;;;;1859579;76;21242;-73
2022/11/22 06:36:33;;;;;;;8.43;7.00;;;32.90;60.90;;;;;;1857988;76;21116;-74
2022/11/22 06:39:05;;;;;;;9.93;7.12;;;32.90;61.40;;;;;;1836342;77;21657;-75
2022/11/22 06:41:37;;;;;;;11.20;7.37;;;33.00;61.10;;;;;;1877329;76;21486;-73
2022/11/22 06:44:10;;;;;;;13.15;7.75;;;33.00;61.30;;;;;;1866147;77;21206;-76
2022/11/22 06:46:43;;;;;;;12.07;7.10;;;33.00;61.60;;;;;;1767781;81;21131;-73
2022/11/22 06:49:15;;;;;;;10.75;7.70;;;32.90;61.10;;;;;;1808593;78;21219;-74
2022/11/22 06:51:46;;;;;;;9.93;7.03;;;33.00;61.40;;;;;;1785137;79;21207;-73
2022/11/22 06:54:17;;;;;;;11.63;7.10;;;33.00;61.10;;;;;;1827418;77;21169;-73
2022/11/22 06:56:48;;;;;;;8.90;6.60;;;33.00;60.10;;;;;;1819762;77;21174;-73
2022/11/22 06:59:21;;;;;;;9.20;7.00;;;33.00;61.30;;;;;;1830297;77;21182;-72
2022/11/22 07:01:52;;;;;;;10.63;7.28;;;32.90;60.80;;;;;;1830334;77;21977;-73
2022/11/22 07:04:23;;;;;;;8.93;7.17;;;32.90;61.20;;;;;;1797961;79;21245;-73
2022/11/22 07:06:55;;;;;;;9.50;6.87;;;32.90;61.20;;;;;;1832909;78;21152;-73
2022/11/22 07:09:26;;;;;;;14.13;7.28;;;32.90;61.40;;;;;;1762668;80;21766;-74
2022/11/22 07:11:57;;;;;;;8.20;6.85;;;32.80;61.00;;;;;;1858276;76;21166;-72
2022/11/22 07:14:28;;;;;;;9.65;7.45;;;32.90;61.00;;;;;;1817617;76;21116;-73
2022/11/22 07:17:00;;;;;;;11.83;7.28;;;32.90;61.00;;;;;;1838358;76;21289;-72
2022/11/22 07:19:32;;;;;;;9.38;7.33;;;32.90;61.00;;;;;;1830043;77;21771;-72
2022/11/22 07:22:03;;;;;;;8.78;6.87;;;32.90;60.00;;;;;;1827951;77;21183;-73
2022/11/22 07:24:34;;;;;;;9.05;6.55;;;32.90;59.90;;;;;;1845913;76;21192;-72
2022/11/22 07:27:06;;;;;;;11.78;7.10;;;32.90;59.60;;;;;;1839057;77;21202;-72
2022/11/22 07:29:37;;;;;;;8.08;6.75;;;32.90;60.20;;;;;;1844304;77;21149;-72
2022/11/22 07:32:08;;;;;;;10.60;7.22;;;32.80;60.10;;;;;;1850860;76;21142;-73
2022/11/22 07:34:42;;;;;;;8.18;6.55;;;32.80;60.50;;;;;;1828351;76;21081;-72
2022/11/22 07:37:16;;;;;;;11.20;7.30;;;32.70;60.80;;;;;;1817248;77;21645;-71
2022/11/22 07:39:48;;;;;;;9.50;7.08;;;32.70;60.80;;;;;;1815223;77;21190;-72
2022/11/22 07:42:20;;;;;;;10.53;6.83;;;32.70;60.80;;;;;;1810128;78;21709;-74
2022/11/22 07:44:53;;;;;;;8.73;6.90;;;32.70;60.60;;;;;;1829356;77;21559;-73
2022/11/22 07:47:24;;;;;;;11.33;6.30;;;32.70;60.90;;;;;;1828722;77;21121;-73
2022/11/22 07:49:55;;;;;;;9.00;6.45;;;32.70;60.80;;;;;;1841421;77;21229;-73
2022/11/22 07:52:26;;;;;;;13.80;7.20;;;32.70;60.10;;;;;;1838535;77;21218;-73
2022/11/22 07:54:57;;;;;;;10.25;7.03;;;32.70;61.00;;;;;;1820027;77;21228;-74
2022/11/22 07:57:28;;;;;;;8.10;6.72;;;32.60;60.80;;;;;;1825195;76;21146;-72
2022/11/22 08:00:01;;;;;;;9.33;7.58;;;32.50;60.50;;;;;;1819199;77;21192;-72
2022/11/22 08:02:36;;;;;;;8.98;6.60;;;32.40;61.10;;;;;;1802702;77;21178;-73
2022/11/22 08:05:08;;;;;;;8.08;6.67;;;32.40;61.40;;;;;;1822950;77;21629;-74
2022/11/22 08:07:50;;;;;;;7.90;6.42;;;32.40;61.90;;;;;;1805463;77;21115;-73
2022/11/22 08:10:22;;;;;;;9.10;6.87;;;32.40;61.60;;;;;;1820626;77;21138;-73
2022/11/22 08:12:53;;;;;;;9.73;7.08;;;32.30;61.30;;;;;;1824842;76;21153;-72
2022/11/22 08:15:25;;;;;;;8.70;6.78;;;32.30;61.70;;;;;;1822149;78;21577;-74
2022/11/22 08:17:57;;;;;;;10.43;7.05;;;32.30;61.90;;;;;;1851152;75;21674;-73
2022/11/22 08:20:31;;;;;;;9.28;7.58;;;32.30;62.10;;;;;;1802701;78;21666;-74
2022/11/22 08:23:04;;;;;;;8.88;7.45;;;32.20;62.10;;;;;;1802338;78;21123;-74
2022/11/22 08:25:35;;;;;;;11.33;7.85;;;32.20;62.50;;;;;;1757391;79;21194;-75
2022/11/22 08:28:06;;;;;;;10.72;7.95;;;32.20;62.80;;;;;;1754891;80;21181;-74
2022/11/22 08:30:37;;;;;;;15.63;8.45;;;32.20;62.70;;;;;;1822595;76;21533;-73
2022/11/22 08:33:08;;;;;;;11.57;8.15;;;32.20;62.50;;;;;;1831671;78;21267;-73
2022/11/22 08:35:40;;;;;;;12.50;7.03;;;32.20;62.80;;;;;;1829296;78;21624;-73
2022/11/22 08:38:11;;;;;;;10.43;7.65;;;32.20;62.60;;;;;;1829913;77;21141;-72
2022/11/22 08:40:43;;;;;;;12.40;7.92;;;32.20;62.30;;;;;;1830111;78;21198;-73
2022/11/22 08:43:14;;;;;;;9.95;7.25;;;32.20;62.10;;;;;;1832215;78;21131;-72
2022/11/22 08:45:46;;;;;;;10.95;6.97;;;32.20;62.10;;;;;;1830760;78;21113;-74
2022/11/22 08:48:17;;;;;;;33.85;18.20;;;32.30;62.70;;;;;;1825006;78;21208;-72
2022/11/22 08:50:54;;;;;;;9.40;7.67;;;32.40;63.10;;;;;;1830106;77;21222;-74
2022/11/22 08:53:26;;;;;;;11.33;7.97;;;32.40;62.20;;;;;;1830870;78;21227;-73
2022/11/22 08:56:02;;;;;;;10.18;7.60;;;32.30;62.00;;;;;;1830815;78;21226;-74
2022/11/22 08:58:34;;;;;;;8.58;7.60;;;32.30;62.10;;;;;;1829390;77;21129;-73
2022/11/22 09:01:11;;;;;;;12.60;7.78;;;32.40;62.20;;;;;;1850652;76;21170;-73
2022/11/22 09:03:41;;;;;;;;;;;32.20;62.30;;;;;;1794238;80;21512;-72
2022/11/22 09:06:17;;;;;;;13.72;10.85;;;32.20;63.00;;;;;;1785069;79;20226;-73
2022/11/22 09:08:50;;;;;;;13.25;8.85;;;32.20;62.80;;;;;;1793932;79;22118;-73
2022/11/22 09:11:22;;;;;;;15.75;11.03;;;32.20;62.80;;;;;;1825605;77;21149;-72
2022/11/22 09:13:53;;;;;;;9.83;7.05;;;32.20;63.10;;;;;;1833656;77;21621;-74
2022/11/22 09:16:24;;;;;;;12.65;8.20;;;32.10;62.90;;;;;;1825705;77;21119;-74
2022/11/22 09:18:57;;;;;;;12.95;9.48;;;32.10;63.00;;;;;;1831788;77;21518;-74
2022/11/22 09:21:31;;;;;;;12.45;9.73;;;32.10;63.20;;;;;;1808187;78;21163;-74
2022/11/22 09:24:02;;;;;;;13.58;9.75;;;32.00;63.00;;;;;;1849123;77;21553;-75
2022/11/22 09:26:33;;;;;;;14.85;7.92;;;32.00;63.50;;;;;;1838481;77;21229;-73
2022/11/22 09:29:04;;;;;;;12.20;9.60;;;32.00;63.20;;;;;;1843502;76;21055;-73
2022/11/22 09:31:35;;;;;;;13.48;9.50;;;32.00;63.50;;;;;;1844974;76;21590;-74
2022/11/22 09:34:08;;;;;;;14.38;9.45;;;31.90;63.60;;;;;;1830872;77;21564;-74
2022/11/22 09:36:39;;;;;;;13.13;9.30;;;31.90;63.70;;;;;;1808926;79;21167;-73
2022/11/22 09:39:10;;;;;;;12.75;8.80;;;31.90;63.90;;;;;;1808752;77;21166;-74
2022/11/22 09:42:03;;;;;;;11.55;8.40;;;31.90;64.00;;;;;;1821493;77;21250;-72
2022/11/22 09:44:54;;;;;;;14.28;9.50;;;31.80;64.30;;;;;;1827415;77;21106;-74
2022/11/22 09:48:03;;;;;;;13.62;9.25;;;31.80;64.40;;;;;;1829091;77;21186;-73
2022/11/22 09:50:48;;;;;;;12.53;9.35;;;31.80;64.60;;;;;;1833354;77;21209;-74
2022/11/22 09:53:34;;;;;;;12.88;9.40;;;31.70;64.70;;;;;;1839469;76;21151;-75
2022/11/22 09:56:07;;;;;;;;;;;31.70;64.60;;;;;;1835153;77;21132;-73
2022/11/22 09:58:50;;;;;;;13.98;9.35;;;31.60;64.90;;;;;;1826140;77;20525;-73
2022/11/22 10:01:29;;;;;;;13.03;9.68;;;31.60;65.00;;;;;;1813801;77;21221;-75
2022/11/22 10:04:03;;;;;;;15.40;9.83;;;31.60;65.10;;;;;;1816139;76;22176;-75
2022/11/22 10:06:37;;;;;;;16.05;9.83;;;31.60;65.30;;;;;;1851673;76;21730;-74
2022/11/22 10:09:35;;;;;;;12.58;10.08;;;31.50;65.40;;;;;;1824963;77;21550;-73
2022/11/22 10:12:33;;;;;;;11.75;8.85;;;31.50;65.50;;;;;;1846845;76;21165;-73
2022/11/22 10:15:24;;;;;;;13.43;9.43;;;31.50;65.40;;;;;;1852970;76;21089;-73
2022/11/22 10:17:58;;;;;;;12.23;9.33;;;31.40;65.70;;;;;;1831266;77;21607;-74
2022/11/22 10:20:31;;;;;;;16.00;9.90;;;31.40;65.70;;;;;;1837106;77;21157;-73
2022/11/22 10:23:05;;;;;;;15.60;10.55;;;31.40;66.20;;;;;;1826481;76;21272;-86
2022/11/22 10:25:43;;;;;;;13.58;9.95;;;31.40;66.10;;;;;;1853005;74;21087;-83
2022/11/22 10:28:26;;;;;;;13.72;9.20;;;31.30;66.20;;;;;;1870890;75;21086;-88
2022/11/22 10:31:26;;;;;;;14.80;9.20;;;31.30;66.20;;;;;;1808139;77;21104;-86
2022/11/22 10:34:02;;;;;;;15.35;9.53;;;31.30;66.60;;;;;;1839732;76;21113;-86
2022/11/22 10:36:52;;;;;;;12.80;10.08;;;31.30;66.70;;;;;;1859108;76;21147;-86
2022/11/22 10:39:41;;;;;;;18.02;11.63;;;31.20;66.80;;;;;;1862728;76;21135;-87
2022/11/22 10:42:23;;;;;;;18.12;11.25;;;31.20;66.90;;;;;;1867123;75;21519;-85
2022/11/22 10:45:03;;;;;;;15.23;11.48;;;31.20;68.00;;;;;;1874321;75;21048;-85
2022/11/22 10:47:42;;;;;;;20.97;11.55;;;31.20;68.20;;;;;;1839926;76;21214;-87
2022/11/22 10:50:24;;;;;;;20.62;12.37;;;31.10;67.40;;;;;;1842242;76;21223;-86
2022/11/22 10:52:58;;;;;;;18.05;11.53;;;31.10;67.70;;;;;;1861443;75;21147;-84
2022/11/22 10:55:31;;;;;;;24.07;14.13;;;31.10;67.90;;;;;;1876917;76;21166;-86
2022/11/22 10:58:26;;;;;;;19.23;13.40;;;31.10;68.00;;;;;;1872029;74;21158;-86
2022/11/22 11:01:24;;;;;;;23.18;15.20;;;31.10;68.20;;;;;;1865234;73;21166;-86
2022/11/22 11:03:59;;;;;;;21.73;13.22;;;31.10;68.50;;;;;;1828217;77;21197;-87
2022/11/22 11:06:43;;;;;;;16.25;13.68;;;31.00;68.50;;;;;;1853230;76;21135;-86
2022/11/22 11:09:35;;;;;;;18.85;12.85;;;31.00;69.50;;;;;;1849960;76;21261;-86
2022/11/22 11:12:34;;;;;;;16.00;13.03;;;31.00;68.80;;;;;;1868779;74;21164;-86
2022/11/22 11:15:07;;;;;;;20.60;13.00;;;31.00;69.10;;;;;;1841361;76;21158;-86
2022/11/22 11:17:38;;;;;;;17.25;12.78;;;31.00;69.20;;;;;;1848754;76;21111;-87
2022/11/22 11:20:15;;;;;;;18.80;12.85;;;30.90;69.30;;;;;;1846396;77;21122;-87
2022/11/22 11:22:46;;;;;;;19.27;13.40;;;30.90;69.50;;;;;;1860415;76;21183;-86
2022/11/22 11:25:44;;;;;;;17.77;12.98;;;30.90;69.70;;;;;;1865922;75;21280;-86
2022/11/22 11:28:22;;;;;;;19.17;14.03;;;30.90;70.00;;;;;;1876673;75;21141;-86
2022/11/22 11:31:12;;;;;;;21.12;13.15;;;30.90;70.00;;;;;;1806048;78;21282;-86
2022/11/22 11:33:43;;;;;;;19.70;13.03;;;30.80;69.90;;;;;;1884943;75;21145;-88
2022/11/22 11:36:19;;;;;;;19.52;13.58;;;30.90;70.00;;;;;;1851731;76;21226;-85
2022/11/22 11:38:52;;;;;;;16.48;12.95;;;30.90;70.20;;;;;;1844912;76;21174;-86
2022/11/22 11:41:34;;;;;;;24.40;16.55;;;30.90;70.20;;;;;;1862697;76;21600;-85
2022/11/22 11:44:07;;;;;;;19.92;13.72;;;30.80;70.30;;;;;;1859925;77;21091;-85
2022/11/22 11:46:45;;;;;;;20.80;14.63;;;30.80;70.60;;;;;;1859875;76;21143;-85
2022/11/22 11:49:18;;;;;;;23.12;14.83;;;30.70;70.90;;;;;;1864479;75;21198;-85
2022/11/22 11:51:51;;;;;;;23.22;13.88;;;30.70;71.10;;;;;;1847988;76;21154;-87
2022/11/22 11:54:30;;;;;;;22.07;14.18;;;30.70;71.20;;;;;;1824974;76;21147;-88
2022/11/22 11:57:07;;;;;;;21.57;15.85;;;30.70;71.30;;;;;;1859660;77;21064;-87
2022/11/22 11:59:43;;;;;;;25.12;17.48;;;30.70;71.60;;;;;;1856287;75;21204;-86
2022/11/22 12:02:33;;;;;;;67.85;53.68;;;30.70;72.00;;;;;;1859245;75;21558;-90
2022/11/22 12:05:29;;;;;;;26.73;19.20;;;30.60;72.00;;;;;;1797178;79;21159;-90
2022/11/22 12:08:29;;;;;;;25.95;15.75;;;30.60;72.30;;;;;;1812663;76;21554;-88
2022/11/22 12:11:13;;;;;;;20.45;13.98;;;30.60;72.50;;;;;;1871315;76;21248;-87
2022/11/22 12:13:46;;;;;;;22.80;14.53;;;30.60;72.90;;;;;;1876793;76;21084;-87
2022/11/22 12:16:30;;;;;;;20.75;15.85;;;30.60;72.90;;;;;;1871489;76;21162;-90
2022/11/22 12:19:16;;;;;;;31.55;15.65;;;30.50;73.00;;;;;;1874264;76;21102;-88
2022/11/22 12:22:05;;;;;;;20.72;14.50;;;30.50;72.90;;;;;;1872691;76;21521;-88
2022/11/22 12:24:41;;;;;;;23.85;15.72;;;30.50;73.20;;;;;;1874173;75;21152;-87
2022/11/22 12:27:14;;;;;;;21.10;14.55;;;30.50;73.40;;;;;;1860366;76;21775;-86
2022/11/22 12:29:45;;;;;;;23.25;15.23;;;30.40;73.30;;;;;;1875116;76;21117;-88
2022/11/22 12:32:26;;;;;;;22.13;15.10;;;30.40;73.10;;;;;;1864429;76;21146;-89
2022/11/22 12:35:14;;;;;;;22.25;15.43;;;30.40;73.50;;;;;;1874866;76;21090;-90
2022/11/22 12:37:59;;;;;;;25.10;15.03;;;30.40;73.70;;;;;;1875374;75;21659;-88
2022/11/22 12:40:40;;;;;;;19.07;14.28;;;30.30;73.60;;;;;;1820823;76;21637;-87
2022/11/22 12:43:32;;;;;;;19.92;14.45;;;30.30;73.70;;;;;;1865725;76;21075;-90
2022/11/22 12:46:11;;;;;;;20.85;14.05;;;30.30;73.60;;;;;;1875057;76;22350;-87
2022/11/22 12:48:44;;;;;;;21.37;13.95;;;30.30;73.50;;;;;;1874804;76;21177;-88
2022/11/22 12:51:25;;;;;;;22.40;14.00;;;30.30;73.60;;;;;;1872933;75;21130;-87
2022/11/22 12:54:02;;;;;;;19.50;13.25;;;30.30;73.70;;;;;;1878171;75;21129;-89
2022/11/22 12:56:35;;;;;;;19.55;13.35;;;30.20;73.80;;;;;;1872903;75;21151;-88
2022/11/22 12:59:12;;;;;;;18.55;13.48;;;30.20;73.90;;;;;;1877877;74;21058;-89
2022/11/22 13:01:50;;;;;;;16.65;12.95;;;30.20;74.00;;;;;;1871874;76;21135;-88
2022/11/22 13:04:34;;;;;;;22.65;12.82;;;30.20;74.40;;;;;;1869898;76;21078;-86
2022/11/22 13:07:07;;;;;;;20.97;12.55;;;30.20;74.40;;;;;;1863902;76;21567;-90
2022/11/22 13:09:46;;;;;;;32.48;28.47;;;30.20;74.70;;;;;;1853774;74;21161;-89
2022/11/22 13:12:19;;;;;;;29.95;23.02;;;30.20;74.70;;;;;;1861964;76;21240;-88
2022/11/22 13:14:58;;;;;;;17.85;12.40;;;30.20;74.20;;;;;;1855715;74;21113;-88
2022/11/22 13:17:37;;;;;;;;;;;30.20;74.80;;;;;;1855914;75;21228;-88
2022/11/22 13:20:22;;;;;;;23.30;18.10;;;30.10;74.00;;;;;;1832321;75;20172;-89
2022/11/22 13:23:24;;;;;;;22.05;13.98;;;30.10;75.00;;;;;;1847982;76;21141;-88
2022/11/22 13:26:00;;;;;;;23.22;13.38;;;30.10;75.30;;;;;;1857409;75;21130;-88